sensor_id;sensor_type;location;lat;lon;timestamp;P1;durP1;ratioP1;P2;durP2;ratioP2
64188;SDS011;50493;50.970;10.082;2023-09-19T00:00:55;1.65;;;1.20;;
64188;SDS011;50493;50.970;10.082;2023-09-19T00:03:23;1.55;;;1.25;;
64188;SDS011;50493;50.970;10.082;2023-09-19T00:05:49;2.90;;;1.15;;
64188;SDS011;50493;50.970;10.082;2023-09-19T00:08:15;4.07;;;1.20;;
64188;SDS011;50493;50.970;10.082;2023-09-19T00:10:41;1.63;;;1.17;;
64188;SDS011;50493;50.970;10.082;2023-09-19T00:13:07;3.63;;;1.00;;
64188;SDS011;50493;50.970;10.082;2023-09-19T00:15:36;2.35;;;1.17;;
64188;SDS011;50493;50.970;10.082;2023-09-19T00:18:03;1.30;;;1.08;;
64188;SDS011;50493;50.970;10.082;2023-09-19T00:20:31;1.75;;;0.93;;
64188;SDS011;50493;50.970;10.082;2023-09-19T00:22:56;1.92;;;1.30;;
64188;SDS011;50493;50.970;10.082;2023-09-19T00:25:24;1.55;;;1.00;;
64188;SDS011;50493;50.970;10.082;2023-09-19T00:27:50;2.53;;;1.13;;
64188;SDS011;50493;50.970;10.082;2023-09-19T00:30:16;2.55;;;1.10;;
64188;SDS011;50493;50.970;10.082;2023-09-19T00:32:46;2.83;;;1.13;;
64188;SDS011;50493;50.970;10.082;2023-09-19T00:35:12;2.90;;;1.20;;
64188;SDS011;50493;50.970;10.082;2023-09-19T00:37:40;2.08;;;1.13;;
64188;SDS011;50493;50.970;10.082;2023-09-19T00:40:06;2.42;;;1.27;;
64188;SDS011;50493;50.970;10.082;2023-09-19T00:42:37;2.28;;;1.20;;
64188;SDS011;50493;50.970;10.082;2023-09-19T00:45:03;1.63;;;1.08;;
64188;SDS011;50493;50.970;10.082;2023-09-19T00:47:28;1.20;;;1.10;;
64188;SDS011;50493;50.970;10.082;2023-09-19T00:49:55;2.67;;;1.17;;
64188;SDS011;50493;50.970;10.082;2023-09-19T00:52:20;1.70;;;0.98;;
64188;SDS011;50493;50.970;10.082;2023-09-19T00:54:48;1.90;;;1.10;;
64188;SDS011;50493;50.970;10.082;2023-09-19T00:57:13;1.50;;;0.90;;
64188;SDS011;50493;50.970;10.082;2023-09-19T00:59:40;1.98;;;1.10;;
64188;SDS011;50493;50.970;10.082;2023-09-19T01:02:05;2.50;;;1.00;;
64188;SDS011;50493;50.970;10.082;2023-09-19T01:04:31;1.77;;;1.10;;
64188;SDS011;50493;50.970;10.082;2023-09-19T01:06:57;3.45;;;1.20;;
64188;SDS011;50493;50.970;10.082;2023-09-19T01:09:23;2.67;;;1.30;;
64188;SDS011;50493;50.970;10.082;2023-09-19T01:11:50;1.42;;;1.10;;
64188;SDS011;50493;50.970;10.082;2023-09-19T01:14:20;1.80;;;1.20;;
64188;SDS011;50493;50.970;10.082;2023-09-19T01:16:56;1.63;;;1.10;;
64188;SDS011;50493;50.970;10.082;2023-09-19T01:19:38;4.35;;;1.40;;
64188;SDS011;50493;50.970;10.082;2023-09-19T01:22:23;3.13;;;1.20;;
64188;SDS011;50493;50.970;10.082;2023-09-19T01:25:14;2.47;;;1.40;;
64188;SDS011;50493;50.970;10.082;2023-09-19T01:28:14;2.03;;;1.20;;
64188;SDS011;50493;50.970;10.082;2023-09-19T01:30:56;2.13;;;1.00;;
64188;SDS011;50493;50.970;10.082;2023-09-19T01:33:25;1.75;;;1.10;;
64188;SDS011;50493;50.970;10.082;2023-09-19T01:38:18;2.40;;;1.30;;
64188;SDS011;50493;50.970;10.082;2023-09-19T01:40:46;1.27;;;1.05;;
64188;SDS011;50493;50.970;10.082;2023-09-19T01:43:23;2.95;;;1.20;;
64188;SDS011;50493;50.970;10.082;2023-09-19T01:45:55;1.65;;;1.10;;
64188;SDS011;50493;50.970;10.082;2023-09-19T01:48:30;1.80;;;1.17;;
64188;SDS011;50493;50.970;10.082;2023-09-19T01:51:05;2.95;;;1.40;;
64188;SDS011;50493;50.970;10.082;2023-09-19T01:53:33;2.38;;;1.30;;
64188;SDS011;50493;50.970;10.082;2023-09-19T01:56:01;3.35;;;1.30;;
64188;SDS011;50493;50.970;10.082;2023-09-19T01:58:33;2.63;;;1.25;;
64188;SDS011;50493;50.970;10.082;2023-09-19T02:01:05;1.73;;;1.10;;
64188;SDS011;50493;50.970;10.082;2023-09-19T02:03:33;4.25;;;1.35;;
64188;SDS011;50493;50.970;10.082;2023-09-19T02:06:01;3.70;;;1.35;;
64188;SDS011;50493;50.970;10.082;2023-09-19T02:08:28;2.20;;;1.33;;
64188;SDS011;50493;50.970;10.082;2023-09-19T02:10:56;2.28;;;1.33;;
64188;SDS011;50493;50.970;10.082;2023-09-19T02:13:22;3.13;;;1.40;;
64188;SDS011;50493;50.970;10.082;2023-09-19T02:15:53;2.58;;;1.40;;
64188;SDS011;50493;50.970;10.082;2023-09-19T02:18:19;1.40;;;1.08;;
64188;SDS011;50493;50.970;10.082;2023-09-19T02:20:45;3.15;;;1.35;;
64188;SDS011;50493;50.970;10.082;2023-09-19T02:23:11;2.65;;;1.13;;
64188;SDS011;50493;50.970;10.082;2023-09-19T02:25:37;2.53;;;1.25;;
64188;SDS011;50493;50.970;10.082;2023-09-19T02:28:05;1.45;;;1.10;;
64188;SDS011;50493;50.970;10.082;2023-09-19T02:30:31;1.92;;;1.20;;
64188;SDS011;50493;50.970;10.082;2023-09-19T02:32:56;3.33;;;1.40;;
64188;SDS011;50493;50.970;10.082;2023-09-19T02:35:23;1.85;;;1.00;;
64188;SDS011;50493;50.970;10.082;2023-09-19T02:37:51;2.80;;;1.17;;
64188;SDS011;50493;50.970;10.082;2023-09-19T02:40:17;2.78;;;1.30;;
64188;SDS011;50493;50.970;10.082;2023-09-19T02:42:45;1.58;;;1.20;;
64188;SDS011;50493;50.970;10.082;2023-09-19T02:45:12;2.58;;;1.27;;
64188;SDS011;50493;50.970;10.082;2023-09-19T02:47:37;1.85;;;1.10;;
64188;SDS011;50493;50.970;10.082;2023-09-19T02:50:05;2.47;;;1.10;;
64188;SDS011;50493;50.970;10.082;2023-09-19T02:52:32;2.72;;;1.50;;
64188;SDS011;50493;50.970;10.082;2023-09-19T02:54:58;1.65;;;1.20;;
64188;SDS011;50493;50.970;10.082;2023-09-19T02:57:23;1.95;;;1.30;;
64188;SDS011;50493;50.970;10.082;2023-09-19T02:59:49;2.28;;;1.40;;
64188;SDS011;50493;50.970;10.082;2023-09-19T03:02:14;2.22;;;1.20;;
64188;SDS011;50493;50.970;10.082;2023-09-19T03:04:41;1.90;;;1.20;;
64188;SDS011;50493;50.970;10.082;2023-09-19T03:07:06;1.30;;;1.10;;
64188;SDS011;50493;50.970;10.082;2023-09-19T03:09:33;2.60;;;1.20;;
64188;SDS011;50493;50.970;10.082;2023-09-19T03:11:58;1.92;;;1.20;;
64188;SDS011;50493;50.970;10.082;2023-09-19T03:14:24;2.80;;;1.60;;
64188;SDS011;50493;50.970;10.082;2023-09-19T03:16:50;3.25;;;1.40;;
64188;SDS011;50493;50.970;10.082;2023-09-19T03:19:17;3.38;;;1.60;;
64188;SDS011;50493;50.970;10.082;2023-09-19T03:21:42;3.25;;;1.30;;
64188;SDS011;50493;50.970;10.082;2023-09-19T03:24:08;3.97;;;1.50;;
64188;SDS011;50493;50.970;10.082;2023-09-19T03:26:34;2.20;;;1.20;;
64188;SDS011;50493;50.970;10.082;2023-09-19T03:29:03;2.55;;;0.98;;
64188;SDS011;50493;50.970;10.082;2023-09-19T03:31:31;3.17;;;1.52;;
64188;SDS011;50493;50.970;10.082;2023-09-19T03:33:56;2.53;;;1.40;;
64188;SDS011;50493;50.970;10.082;2023-09-19T03:36:22;3.38;;;1.38;;
64188;SDS011;50493;50.970;10.082;2023-09-19T03:38:47;1.77;;;1.20;;
64188;SDS011;50493;50.970;10.082;2023-09-19T03:41:13;2.17;;;1.30;;
64188;SDS011;50493;50.970;10.082;2023-09-19T03:43:40;3.67;;;1.35;;
64188;SDS011;50493;50.970;10.082;2023-09-19T03:46:06;2.22;;;1.33;;
64188;SDS011;50493;50.970;10.082;2023-09-19T03:48:33;2.15;;;1.30;;
64188;SDS011;50493;50.970;10.082;2023-09-19T03:50:58;1.73;;;1.17;;
64188;SDS011;50493;50.970;10.082;2023-09-19T03:53:24;1.77;;;1.08;;
64188;SDS011;50493;50.970;10.082;2023-09-19T03:55:49;3.17;;;1.10;;
64188;SDS011;50493;50.970;10.082;2023-09-19T03:58:15;2.40;;;1.20;;
64188;SDS011;50493;50.970;10.082;2023-09-19T04:00:41;3.47;;;1.13;;
64188;SDS011;50493;50.970;10.082;2023-09-19T04:03:07;2.10;;;1.30;;
64188;SDS011;50493;50.970;10.082;2023-09-19T04:05:32;1.80;;;1.33;;
64188;SDS011;50493;50.970;10.082;2023-09-19T04:07:58;2.75;;;1.40;;
64188;SDS011;50493;50.970;10.082;2023-09-19T04:10:24;2.05;;;1.40;;
64188;SDS011;50493;50.970;10.082;2023-09-19T04:12:52;2.67;;;1.27;;
64188;SDS011;50493;50.970;10.082;2023-09-19T04:15:18;2.45;;;1.20;;
64188;SDS011;50493;50.970;10.082;2023-09-19T04:17:45;2.75;;;1.30;;
64188;SDS011;50493;50.970;10.082;2023-09-19T04:20:11;2.65;;;1.27;;
64188;SDS011;50493;50.970;10.082;2023-09-19T04:22:37;3.50;;;1.48;;
64188;SDS011;50493;50.970;10.082;2023-09-19T04:25:03;2.60;;;1.23;;
64188;SDS011;50493;50.970;10.082;2023-09-19T04:27:28;2.90;;;1.17;;
64188;SDS011;50493;50.970;10.082;2023-09-19T04:29:54;2.25;;;1.30;;
64188;SDS011;50493;50.970;10.082;2023-09-19T04:34:50;2.43;;;1.23;;
64188;SDS011;50493;50.970;10.082;2023-09-19T04:37:16;2.70;;;1.10;;
64188;SDS011;50493;50.970;10.082;2023-09-19T04:39:41;2.50;;;1.30;;
64188;SDS011;50493;50.970;10.082;2023-09-19T04:42:06;2.08;;;1.20;;
64188;SDS011;50493;50.970;10.082;2023-09-19T04:44:32;1.70;;;1.10;;
64188;SDS011;50493;50.970;10.082;2023-09-19T04:46:57;4.65;;;1.40;;
64188;SDS011;50493;50.970;10.082;2023-09-19T04:49:22;1.75;;;1.08;;
64188;SDS011;50493;50.970;10.082;2023-09-19T04:51:49;2.08;;;1.20;;
64188;SDS011;50493;50.970;10.082;2023-09-19T04:54:14;2.03;;;1.30;;
64188;SDS011;50493;50.970;10.082;2023-09-19T04:56:40;3.20;;;1.38;;
64188;SDS011;50493;50.970;10.082;2023-09-19T04:59:06;2.22;;;1.30;;
64188;SDS011;50493;50.970;10.082;2023-09-19T05:01:31;2.70;;;1.30;;
64188;SDS011;50493;50.970;10.082;2023-09-19T05:03:57;2.72;;;1.38;;
64188;SDS011;50493;50.970;10.082;2023-09-19T05:06:23;2.65;;;1.33;;
64188;SDS011;50493;50.970;10.082;2023-09-19T05:08:50;4.40;;;1.35;;
64188;SDS011;50493;50.970;10.082;2023-09-19T05:11:17;1.63;;;1.20;;
64188;SDS011;50493;50.970;10.082;2023-09-19T05:13:43;1.90;;;1.15;;
64188;SDS011;50493;50.970;10.082;2023-09-19T05:16:08;3.33;;;1.15;;
64188;SDS011;50493;50.970;10.082;2023-09-19T05:18:35;5.22;;;1.50;;
64188;SDS011;50493;50.970;10.082;2023-09-19T05:21:01;2.00;;;1.20;;
64188;SDS011;50493;50.970;10.082;2023-09-19T05:23:27;2.65;;;1.08;;
64188;SDS011;50493;50.970;10.082;2023-09-19T05:25:54;2.65;;;1.10;;
64188;SDS011;50493;50.970;10.082;2023-09-19T05:28:22;2.20;;;1.20;;
64188;SDS011;50493;50.970;10.082;2023-09-19T05:30:47;2.30;;;1.17;;
64188;SDS011;50493;50.970;10.082;2023-09-19T05:33:14;2.17;;;1.30;;
64188;SDS011;50493;50.970;10.082;2023-09-19T05:35:39;1.95;;;1.10;;
64188;SDS011;50493;50.970;10.082;2023-09-19T05:38:06;4.30;;;1.70;;
64188;SDS011;50493;50.970;10.082;2023-09-19T05:40:37;3.65;;;1.40;;
64188;SDS011;50493;50.970;10.082;2023-09-19T05:43:05;3.67;;;1.60;;
64188;SDS011;50493;50.970;10.082;2023-09-19T05:45:30;6.80;;;2.65;;
64188;SDS011;50493;50.970;10.082;2023-09-19T05:47:56;3.42;;;1.40;;
64188;SDS011;50493;50.970;10.082;2023-09-19T05:50:32;4.88;;;1.80;;
64188;SDS011;50493;50.970;10.082;2023-09-19T05:52:59;4.97;;;1.70;;
64188;SDS011;50493;50.970;10.082;2023-09-19T05:55:24;3.38;;;1.48;;
64188;SDS011;50493;50.970;10.082;2023-09-19T05:57:50;3.53;;;1.50;;
64188;SDS011;50493;50.970;10.082;2023-09-19T06:00:18;4.30;;;1.60;;
64188;SDS011;50493;50.970;10.082;2023-09-19T06:02:44;3.75;;;1.52;;
64188;SDS011;50493;50.970;10.082;2023-09-19T06:05:10;4.45;;;1.60;;
64188;SDS011;50493;50.970;10.082;2023-09-19T06:07:35;4.20;;;1.83;;
64188;SDS011;50493;50.970;10.082;2023-09-19T06:10:02;4.65;;;1.45;;
64188;SDS011;50493;50.970;10.082;2023-09-19T06:12:30;6.30;;;1.60;;
64188;SDS011;50493;50.970;10.082;2023-09-19T06:14:58;4.25;;;1.30;;
64188;SDS011;50493;50.970;10.082;2023-09-19T06:17:25;3.80;;;1.40;;
64188;SDS011;50493;50.970;10.082;2023-09-19T06:19:52;2.40;;;1.20;;
64188;SDS011;50493;50.970;10.082;2023-09-19T06:22:18;5.97;;;1.70;;
64188;SDS011;50493;50.970;10.082;2023-09-19T06:24:43;2.92;;;1.30;;
64188;SDS011;50493;50.970;10.082;2023-09-19T06:27:09;3.95;;;1.58;;
64188;SDS011;50493;50.970;10.082;2023-09-19T06:29:35;3.28;;;1.30;;
64188;SDS011;50493;50.970;10.082;2023-09-19T06:32:02;5.57;;;1.60;;
64188;SDS011;50493;50.970;10.082;2023-09-19T06:34:33;4.53;;;1.50;;
64188;SDS011;50493;50.970;10.082;2023-09-19T06:36:59;3.70;;;1.40;;
64188;SDS011;50493;50.970;10.082;2023-09-19T06:39:24;5.13;;;1.30;;
64188;SDS011;50493;50.970;10.082;2023-09-19T06:41:51;4.85;;;1.60;;
64188;SDS011;50493;50.970;10.082;2023-09-19T06:44:18;3.95;;;1.40;;
64188;SDS011;50493;50.970;10.082;2023-09-19T06:46:45;3.65;;;1.60;;
64188;SDS011;50493;50.970;10.082;2023-09-19T06:49:14;4.18;;;1.38;;
64188;SDS011;50493;50.970;10.082;2023-09-19T06:51:41;4.40;;;1.40;;
64188;SDS011;50493;50.970;10.082;2023-09-19T06:54:08;4.80;;;1.58;;
64188;SDS011;50493;50.970;10.082;2023-09-19T06:56:33;4.75;;;1.50;;
64188;SDS011;50493;50.970;10.082;2023-09-19T06:58:58;4.97;;;1.50;;
64188;SDS011;50493;50.970;10.082;2023-09-19T07:01:24;3.67;;;1.50;;
64188;SDS011;50493;50.970;10.082;2023-09-19T07:03:50;7.32;;;1.70;;
64188;SDS011;50493;50.970;10.082;2023-09-19T07:06:15;5.30;;;1.50;;
64188;SDS011;50493;50.970;10.082;2023-09-19T07:08:42;4.90;;;1.38;;
64188;SDS011;50493;50.970;10.082;2023-09-19T07:11:08;3.60;;;1.40;;
64188;SDS011;50493;50.970;10.082;2023-09-19T07:13:33;3.47;;;1.42;;
64188;SDS011;50493;50.970;10.082;2023-09-19T07:15:59;6.13;;;1.50;;
64188;SDS011;50493;50.970;10.082;2023-09-19T07:18:24;6.80;;;1.60;;
64188;SDS011;50493;50.970;10.082;2023-09-19T07:20:50;5.22;;;1.40;;
64188;SDS011;50493;50.970;10.082;2023-09-19T07:23:16;6.45;;;1.77;;
64188;SDS011;50493;50.970;10.082;2023-09-19T07:25:44;4.45;;;1.58;;
64188;SDS011;50493;50.970;10.082;2023-09-19T07:28:11;6.00;;;1.50;;
64188;SDS011;50493;50.970;10.082;2023-09-19T07:30:36;4.90;;;1.50;;
64188;SDS011;50493;50.970;10.082;2023-09-19T07:33:02;5.53;;;1.60;;
64188;SDS011;50493;50.970;10.082;2023-09-19T07:35:29;5.60;;;1.30;;
64188;SDS011;50493;50.970;10.082;2023-09-19T07:37:54;5.47;;;1.55;;
64188;SDS011;50493;50.970;10.082;2023-09-19T07:40:21;4.05;;;1.30;;
64188;SDS011;50493;50.970;10.082;2023-09-19T07:42:51;6.13;;;1.65;;
64188;SDS011;50493;50.970;10.082;2023-09-19T07:45:16;4.90;;;1.50;;
64188;SDS011;50493;50.970;10.082;2023-09-19T07:47:44;6.47;;;1.52;;
64188;SDS011;50493;50.970;10.082;2023-09-19T07:50:10;5.75;;;1.50;;
64188;SDS011;50493;50.970;10.082;2023-09-19T07:52:36;4.30;;;1.60;;
64188;SDS011;50493;50.970;10.082;2023-09-19T07:55:04;5.90;;;1.50;;
64188;SDS011;50493;50.970;10.082;2023-09-19T07:57:33;4.75;;;1.50;;
64188;SDS011;50493;50.970;10.082;2023-09-19T08:00:00;3.78;;;1.40;;
64188;SDS011;50493;50.970;10.082;2023-09-19T08:02:26;5.25;;;1.60;;
64188;SDS011;50493;50.970;10.082;2023-09-19T08:04:53;4.03;;;1.42;;
64188;SDS011;50493;50.970;10.082;2023-09-19T08:07:18;5.25;;;1.60;;
64188;SDS011;50493;50.970;10.082;2023-09-19T08:09:44;5.18;;;1.30;;
64188;SDS011;50493;50.970;10.082;2023-09-19T08:12:11;4.80;;;1.70;;
64188;SDS011;50493;50.970;10.082;2023-09-19T08:14:36;2.60;;;1.20;;
64188;SDS011;50493;50.970;10.082;2023-09-19T08:17:04;6.60;;;1.42;;
64188;SDS011;50493;50.970;10.082;2023-09-19T08:19:30;3.20;;;1.13;;
64188;SDS011;50493;50.970;10.082;2023-09-19T08:21:57;4.32;;;1.30;;
64188;SDS011;50493;50.970;10.082;2023-09-19T08:24:29;2.90;;;1.15;;
64188;SDS011;50493;50.970;10.082;2023-09-19T08:26:55;4.22;;;1.25;;
64188;SDS011;50493;50.970;10.082;2023-09-19T08:29:21;2.38;;;1.10;;
64188;SDS011;50493;50.970;10.082;2023-09-19T08:31:46;3.42;;;1.27;;
64188;SDS011;50493;50.970;10.082;2023-09-19T08:34:15;4.57;;;1.50;;
64188;SDS011;50493;50.970;10.082;2023-09-19T08:36:41;4.25;;;1.42;;
64188;SDS011;50493;50.970;10.082;2023-09-19T08:39:08;4.72;;;1.60;;
64188;SDS011;50493;50.970;10.082;2023-09-19T08:41:33;3.03;;;1.10;;
64188;SDS011;50493;50.970;10.082;2023-09-19T08:43:59;4.75;;;1.30;;
64188;SDS011;50493;50.970;10.082;2023-09-19T08:46:28;5.45;;;1.40;;
64188;SDS011;50493;50.970;10.082;2023-09-19T08:48:58;3.45;;;1.55;;
64188;SDS011;50493;50.970;10.082;2023-09-19T08:51:33;4.15;;;1.30;;
64188;SDS011;50493;50.970;10.082;2023-09-19T08:54:07;6.65;;;1.45;;
64188;SDS011;50493;50.970;10.082;2023-09-19T08:56:32;3.67;;;1.33;;
64188;SDS011;50493;50.970;10.082;2023-09-19T08:58:59;5.35;;;1.70;;
64188;SDS011;50493;50.970;10.082;2023-09-19T09:01:27;3.15;;;1.17;;
64188;SDS011;50493;50.970;10.082;2023-09-19T09:03:53;3.58;;;1.52;;
64188;SDS011;50493;50.970;10.082;2023-09-19T09:06:20;2.85;;;1.25;;
64188;SDS011;50493;50.970;10.082;2023-09-19T09:08:49;4.10;;;1.60;;
64188;SDS011;50493;50.970;10.082;2023-09-19T09:11:15;4.60;;;1.20;;
64188;SDS011;50493;50.970;10.082;2023-09-19T09:13:42;3.45;;;1.30;;
64188;SDS011;50493;50.970;10.082;2023-09-19T09:16:09;6.40;;;1.55;;
64188;SDS011;50493;50.970;10.082;2023-09-19T09:18:35;5.68;;;1.67;;
64188;SDS011;50493;50.970;10.082;2023-09-19T09:21:00;3.20;;;1.23;;
64188;SDS011;50493;50.970;10.082;2023-09-19T09:23:26;2.97;;;1.20;;
64188;SDS011;50493;50.970;10.082;2023-09-19T09:25:56;4.30;;;1.35;;
64188;SDS011;50493;50.970;10.082;2023-09-19T09:28:22;5.80;;;2.00;;
64188;SDS011;50493;50.970;10.082;2023-09-19T09:30:48;4.10;;;1.35;;
64188;SDS011;50493;50.970;10.082;2023-09-19T09:33:15;5.43;;;1.67;;
64188;SDS011;50493;50.970;10.082;2023-09-19T09:35:47;3.63;;;1.67;;
64188;SDS011;50493;50.970;10.082;2023-09-19T09:40:47;4.28;;;1.40;;
64188;SDS011;50493;50.970;10.082;2023-09-19T09:43:31;4.72;;;1.42;;
64188;SDS011;50493;50.970;10.082;2023-09-19T09:46:11;3.67;;;1.30;;
64188;SDS011;50493;50.970;10.082;2023-09-19T09:48:46;3.80;;;1.45;;
64188;SDS011;50493;50.970;10.082;2023-09-19T09:51:32;4.93;;;1.50;;
64188;SDS011;50493;50.970;10.082;2023-09-19T09:54:09;3.50;;;1.40;;
64188;SDS011;50493;50.970;10.082;2023-09-19T09:59:18;4.32;;;1.60;;
64188;SDS011;50493;50.970;10.082;2023-09-19T10:01:46;3.75;;;1.40;;
64188;SDS011;50493;50.970;10.082;2023-09-19T10:04:15;4.45;;;1.42;;
64188;SDS011;50493;50.970;10.082;2023-09-19T10:06:55;3.83;;;1.20;;
64188;SDS011;50493;50.970;10.082;2023-09-19T10:09:20;2.47;;;1.27;;
64188;SDS011;50493;50.970;10.082;2023-09-19T10:11:59;4.80;;;1.45;;
64188;SDS011;50493;50.970;10.082;2023-09-19T10:14:30;3.83;;;1.20;;
64188;SDS011;50493;50.970;10.082;2023-09-19T10:16:58;3.03;;;1.30;;
64188;SDS011;50493;50.970;10.082;2023-09-19T10:19:29;4.28;;;1.50;;
64188;SDS011;50493;50.970;10.082;2023-09-19T10:24:24;3.22;;;1.40;;
64188;SDS011;50493;50.970;10.082;2023-09-19T10:26:52;2.08;;;1.20;;
64188;SDS011;50493;50.970;10.082;2023-09-19T10:29:19;3.50;;;1.30;;
64188;SDS011;50493;50.970;10.082;2023-09-19T10:31:49;3.45;;;1.60;;
64188;SDS011;50493;50.970;10.082;2023-09-19T10:34:18;4.47;;;1.60;;
64188;SDS011;50493;50.970;10.082;2023-09-19T10:36:45;3.85;;;1.30;;
64188;SDS011;50493;50.970;10.082;2023-09-19T10:39:13;5.00;;;1.80;;
64188;SDS011;50493;50.970;10.082;2023-09-19T10:41:43;5.30;;;1.42;;
64188;SDS011;50493;50.970;10.082;2023-09-19T10:44:19;2.72;;;1.40;;
64188;SDS011;50493;50.970;10.082;2023-09-19T10:46:47;3.97;;;1.60;;
64188;SDS011;50493;50.970;10.082;2023-09-19T10:49:14;2.90;;;1.40;;
64188;SDS011;50493;50.970;10.082;2023-09-19T10:51:41;3.40;;;1.23;;
64188;SDS011;50493;50.970;10.082;2023-09-19T10:54:09;4.03;;;1.60;;
64188;SDS011;50493;50.970;10.082;2023-09-19T10:56:38;4.28;;;1.65;;
64188;SDS011;50493;50.970;10.082;2023-09-19T10:59:10;2.05;;;1.30;;
64188;SDS011;50493;50.970;10.082;2023-09-19T11:01:44;5.22;;;1.60;;
64188;SDS011;50493;50.970;10.082;2023-09-19T11:04:23;4.90;;;1.98;;
64188;SDS011;50493;50.970;10.082;2023-09-19T11:07:01;5.38;;;1.70;;
64188;SDS011;50493;50.970;10.082;2023-09-19T11:09:44;3.35;;;1.67;;
64188;SDS011;50493;50.970;10.082;2023-09-19T11:12:11;4.05;;;1.67;;
64188;SDS011;50493;50.970;10.082;2023-09-19T11:14:40;4.20;;;1.75;;
64188;SDS011;50493;50.970;10.082;2023-09-19T11:23:21;5.60;;;1.80;;
64188;SDS011;50493;50.970;10.082;2023-09-19T11:25:49;6.20;;;2.13;;
64188;SDS011;50493;50.970;10.082;2023-09-19T11:40:34;4.22;;;1.83;;
64188;SDS011;50493;50.970;10.082;2023-09-19T11:43:00;5.55;;;1.70;;
64188;SDS011;50493;50.970;10.082;2023-09-19T11:46:08;4.60;;;1.60;;
64188;SDS011;50493;50.970;10.082;2023-09-19T11:48:40;3.63;;;1.70;;
64188;SDS011;50493;50.970;10.082;2023-09-19T11:51:10;4.35;;;1.50;;
64188;SDS011;50493;50.970;10.082;2023-09-19T11:53:44;3.60;;;1.50;;
64188;SDS011;50493;50.970;10.082;2023-09-19T11:56:14;9.27;;;1.90;;
64188;SDS011;50493;50.970;10.082;2023-09-19T11:58:42;3.85;;;1.45;;
64188;SDS011;50493;50.970;10.082;2023-09-19T12:01:08;6.40;;;1.70;;
64188;SDS011;50493;50.970;10.082;2023-09-19T12:03:45;4.95;;;1.50;;
64188;SDS011;50493;50.970;10.082;2023-09-19T12:08:41;3.25;;;1.30;;
64188;SDS011;50493;50.970;10.082;2023-09-19T12:11:11;5.10;;;1.80;;
64188;SDS011;50493;50.970;10.082;2023-09-19T12:13:42;3.88;;;1.90;;
64188;SDS011;50493;50.970;10.082;2023-09-19T12:16:13;3.17;;;1.73;;
64188;SDS011;50493;50.970;10.082;2023-09-19T12:18:40;4.57;;;1.70;;
64188;SDS011;50493;50.970;10.082;2023-09-19T12:21:07;6.63;;;1.70;;
64188;SDS011;50493;50.970;10.082;2023-09-19T12:23:37;4.82;;;1.75;;
64188;SDS011;50493;50.970;10.082;2023-09-19T12:26:06;3.58;;;1.50;;
64188;SDS011;50493;50.970;10.082;2023-09-19T12:28:38;4.32;;;1.60;;
64188;SDS011;50493;50.970;10.082;2023-09-19T12:31:08;3.80;;;1.58;;
64188;SDS011;50493;50.970;10.082;2023-09-19T12:33:34;3.55;;;1.60;;
64188;SDS011;50493;50.970;10.082;2023-09-19T12:36:00;4.15;;;1.80;;
64188;SDS011;50493;50.970;10.082;2023-09-19T12:38:28;4.55;;;1.58;;
64188;SDS011;50493;50.970;10.082;2023-09-19T12:40:54;3.42;;;1.50;;
64188;SDS011;50493;50.970;10.082;2023-09-19T12:43:20;5.35;;;1.80;;
64188;SDS011;50493;50.970;10.082;2023-09-19T12:45:48;3.85;;;1.60;;
64188;SDS011;50493;50.970;10.082;2023-09-19T12:48:20;4.90;;;1.75;;
64188;SDS011;50493;50.970;10.082;2023-09-19T12:50:59;3.88;;;1.60;;
64188;SDS011;50493;50.970;10.082;2023-09-19T12:53:26;3.63;;;1.38;;
64188;SDS011;50493;50.970;10.082;2023-09-19T12:55:57;5.40;;;1.80;;
64188;SDS011;50493;50.970;10.082;2023-09-19T12:58:23;5.05;;;1.65;;
64188;SDS011;50493;50.970;10.082;2023-09-19T13:00:51;3.40;;;1.60;;
64188;SDS011;50493;50.970;10.082;2023-09-19T13:03:18;3.67;;;1.60;;
64188;SDS011;50493;50.970;10.082;2023-09-19T13:05:50;4.03;;;1.67;;
64188;SDS011;50493;50.970;10.082;2023-09-19T13:08:18;5.60;;;1.63;;
64188;SDS011;50493;50.970;10.082;2023-09-19T13:11:04;3.78;;;1.38;;
64188;SDS011;50493;50.970;10.082;2023-09-19T13:13:43;4.75;;;1.70;;
64188;SDS011;50493;50.970;10.082;2023-09-19T13:16:11;3.85;;;1.58;;
64188;SDS011;50493;50.970;10.082;2023-09-19T13:21:10;5.10;;;1.90;;
64188;SDS011;50493;50.970;10.082;2023-09-19T13:23:40;4.50;;;1.60;;
64188;SDS011;50493;50.970;10.082;2023-09-19T13:26:07;4.68;;;1.63;;
64188;SDS011;50493;50.970;10.082;2023-09-19T13:28:33;3.47;;;1.50;;
64188;SDS011;50493;50.970;10.082;2023-09-19T13:30:59;3.90;;;1.75;;
64188;SDS011;50493;50.970;10.082;2023-09-19T13:33:26;3.97;;;1.80;;
64188;SDS011;50493;50.970;10.082;2023-09-19T13:35:51;3.83;;;1.55;;
64188;SDS011;50493;50.970;10.082;2023-09-19T13:38:17;3.13;;;1.60;;
64188;SDS011;50493;50.970;10.082;2023-09-19T13:40:47;4.22;;;1.60;;
64188;SDS011;50493;50.970;10.082;2023-09-19T13:43:13;3.03;;;1.60;;
64188;SDS011;50493;50.970;10.082;2023-09-19T13:45:38;6.90;;;1.90;;
64188;SDS011;50493;50.970;10.082;2023-09-19T13:48:07;3.55;;;1.65;;
64188;SDS011;50493;50.970;10.082;2023-09-19T13:50:34;3.72;;;1.50;;
64188;SDS011;50493;50.970;10.082;2023-09-19T13:53:01;4.78;;;1.70;;
64188;SDS011;50493;50.970;10.082;2023-09-19T13:55:27;4.15;;;1.80;;
64188;SDS011;50493;50.970;10.082;2023-09-19T13:57:52;4.57;;;2.00;;
64188;SDS011;50493;50.970;10.082;2023-09-19T14:00:20;4.20;;;2.10;;
64188;SDS011;50493;50.970;10.082;2023-09-19T14:02:47;4.88;;;1.95;;
64188;SDS011;50493;50.970;10.082;2023-09-19T14:05:14;4.75;;;2.00;;
64188;SDS011;50493;50.970;10.082;2023-09-19T14:07:41;4.55;;;2.03;;
64188;SDS011;50493;50.970;10.082;2023-09-19T14:10:07;6.68;;;1.98;;
64188;SDS011;50493;50.970;10.082;2023-09-19T14:12:33;2.67;;;1.38;;
64188;SDS011;50493;50.970;10.082;2023-09-19T14:14:59;8.27;;;2.20;;
64188;SDS011;50493;50.970;10.082;2023-09-19T14:17:25;3.65;;;2.03;;
64188;SDS011;50493;50.970;10.082;2023-09-19T14:19:51;5.93;;;1.88;;
64188;SDS011;50493;50.970;10.082;2023-09-19T14:22:17;5.70;;;1.90;;
64188;SDS011;50493;50.970;10.082;2023-09-19T14:24:44;3.90;;;1.85;;
64188;SDS011;50493;50.970;10.082;2023-09-19T14:27:09;5.22;;;2.03;;
64188;SDS011;50493;50.970;10.082;2023-09-19T14:29:36;4.90;;;1.90;;
64188;SDS011;50493;50.970;10.082;2023-09-19T14:32:01;5.97;;;1.92;;
64188;SDS011;50493;50.970;10.082;2023-09-19T14:34:27;8.57;;;1.92;;
64188;SDS011;50493;50.970;10.082;2023-09-19T14:36:53;5.05;;;1.75;;
64188;SDS011;50493;50.970;10.082;2023-09-19T14:39:19;5.03;;;2.03;;
64188;SDS011;50493;50.970;10.082;2023-09-19T14:41:46;5.40;;;1.88;;
64188;SDS011;50493;50.970;10.082;2023-09-19T14:44:11;5.60;;;2.20;;
64188;SDS011;50493;50.970;10.082;2023-09-19T14:46:37;5.53;;;1.90;;
64188;SDS011;50493;50.970;10.082;2023-09-19T14:49:02;6.40;;;1.90;;
64188;SDS011;50493;50.970;10.082;2023-09-19T14:51:29;5.13;;;1.77;;
64188;SDS011;50493;50.970;10.082;2023-09-19T14:53:55;4.72;;;1.83;;
64188;SDS011;50493;50.970;10.082;2023-09-19T14:56:21;5.30;;;2.03;;
64188;SDS011;50493;50.970;10.082;2023-09-19T14:58:50;6.13;;;2.00;;
64188;SDS011;50493;50.970;10.082;2023-09-19T15:01:15;4.60;;;1.70;;
64188;SDS011;50493;50.970;10.082;2023-09-19T15:03:41;5.20;;;2.20;;
64188;SDS011;50493;50.970;10.082;2023-09-19T15:06:11;5.53;;;1.60;;
64188;SDS011;50493;50.970;10.082;2023-09-19T15:08:41;5.10;;;2.10;;
64188;SDS011;50493;50.970;10.082;2023-09-19T15:11:12;7.18;;;2.05;;
64188;SDS011;50493;50.970;10.082;2023-09-19T15:13:38;5.45;;;2.05;;